AIQ303 VOMM-VRMM
Flight info
| Callsign | AIQ303 |
|---|---|
| Flight time | 1h 49m |
| Altitude | 34000 |
| Route | SAGOR2A SAGOR DCT TCN/N0437F240 W147 TVM R457 PATLO PATLO1A |
| Aircraft | A320/M-SDE3FGHIRWY/LB1 |
Departure
| Time | 2026-04-23 14:03 |
|---|---|
| Airport | Chennai International Airport (VOMM) |
Arrival
| Time | 2026-04-23 15:52 |
|---|---|
| Airport | Velana International Airport (VRMM) |
| Time | Latitude | Longitude | Altitude | Speed | Heading |
|---|---|---|---|---|---|
| 2026-04-23 13:27 | 12.98424 | 80.16536 | 52 ft | 0 kts | 160° |
| 2026-04-23 13:40 | 12.98424 | 80.16535 | 52 ft | 0 kts | 160° |
| 2026-04-23 13:56 | 12.98427 | 80.16534 | 52 ft | 2 kts | 160° |
| 2026-04-23 13:56 | 12.98441 | 80.16529 | 51 ft | 2 kts | 160° |
| 2026-04-23 13:56 | 12.98455 | 80.16524 | 50 ft | 2 kts | 160° |
| 2026-04-23 13:57 | 12.98469 | 80.16519 | 50 ft | 2 kts | 160° |
| 2026-04-23 13:57 | 12.98484 | 80.16516 | 49 ft | 2 kts | 190° |
| 2026-04-23 13:57 | 12.98498 | 80.16522 | 49 ft | 2 kts | 216° |
| 2026-04-23 13:57 | 12.98508 | 80.16533 | 49 ft | 2 kts | 244° |
| 2026-04-23 13:58 | 12.98513 | 80.16547 | 49 ft | 2 kts | 250° |
| 2026-04-23 13:58 | 12.98515 | 80.16553 | 49 ft | 0 kts | 247° |
| 2026-04-23 14:00 | 12.98513 | 80.16547 | 49 ft | 4 kts | 247° |
| 2026-04-23 14:00 | 12.98470 | 80.16433 | 50 ft | 16 kts | 249° |
| 2026-04-23 14:00 | 12.98430 | 80.16325 | 51 ft | 16 kts | 249° |
| 2026-04-23 14:00 | 12.98388 | 80.16211 | 48 ft | 17 kts | 249° |
| 2026-04-23 14:01 | 12.98343 | 80.16090 | 47 ft | 18 kts | 249° |
| 2026-04-23 14:01 | 12.98294 | 80.15960 | 47 ft | 19 kts | 249° |
| 2026-04-23 14:01 | 12.98314 | 80.15823 | 47 ft | 19 kts | 285° |
| 2026-04-23 14:01 | 12.98352 | 80.15685 | 45 ft | 20 kts | 285° |
| 2026-04-23 14:02 | 12.98390 | 80.15545 | 44 ft | 20 kts | 285° |
| 2026-04-23 14:02 | 12.98454 | 80.15442 | 45 ft | 13 kts | 11° |
| 2026-04-23 14:02 | 12.98492 | 80.15503 | 44 ft | 7 kts | 69° |
| 2026-04-23 14:02 | 12.98580 | 80.15738 | 43 ft | 70 kts | 69° |
| 2026-04-23 14:03 | 12.98831 | 80.16405 | 46 ft | 129 kts | 69° |
| 2026-04-23 14:03 | 12.99223 | 80.17433 | 95 ft | 173 kts | 73° |
| 2026-04-23 14:03 | 12.99672 | 80.18562 | 653 ft | 172 kts | 71° |
| 2026-04-23 14:03 | 13.00163 | 80.19718 | 1076 ft | 186 kts | 72° |
| 2026-04-23 14:04 | 13.00638 | 80.20994 | 1484 ft | 202 kts | 73° |
| 2026-04-23 14:04 | 13.01141 | 80.22397 | 1909 ft | 218 kts | 73° |
| 2026-04-23 14:04 | 13.01694 | 80.23937 | 2304 ft | 239 kts | 72° |
| 2026-04-23 14:04 | 13.02270 | 80.25576 | 2944 ft | 249 kts | 76° |
| 2026-04-23 14:05 | 13.02331 | 80.27377 | 3508 ft | 261 kts | 105° |
| 2026-04-23 14:05 | 13.01511 | 80.28982 | 4191 ft | 261 kts | 130° |
| 2026-04-23 14:05 | 13.00009 | 80.30071 | 4638 ft | 272 kts | 155° |
| 2026-04-23 14:05 | 12.98199 | 80.30785 | 5102 ft | 279 kts | 156° |
| 2026-04-23 14:06 | 12.96361 | 80.31512 | 5593 ft | 284 kts | 155° |
| 2026-04-23 14:06 | 12.94543 | 80.32247 | 6110 ft | 288 kts | 155° |
| 2026-04-23 14:06 | 12.92674 | 80.33011 | 6684 ft | 290 kts | 154° |
| 2026-04-23 14:06 | 12.90775 | 80.33793 | 7265 ft | 293 kts | 154° |
| 2026-04-23 14:07 | 12.88880 | 80.34575 | 7830 ft | 296 kts | 154° |
| 2026-04-23 14:07 | 12.85035 | 80.36156 | 8979 ft | 302 kts | 155° |
| 2026-04-23 14:07 | 12.82963 | 80.36713 | 9559 ft | 309 kts | 168° |
| 2026-04-23 14:08 | 12.80808 | 80.36835 | 10117 ft | 315 kts | 177° |
| 2026-04-23 14:08 | 12.78535 | 80.36779 | 10420 ft | 330 kts | 179° |
| 2026-04-23 14:08 | 12.76187 | 80.36688 | 10681 ft | 344 kts | 179° |
| 2026-04-23 14:08 | 12.73746 | 80.36599 | 10924 ft | 358 kts | 179° |
| 2026-04-23 14:09 | 12.71157 | 80.36517 | 11169 ft | 372 kts | 179° |
| 2026-04-23 14:09 | 12.68519 | 80.36440 | 11391 ft | 385 kts | 179° |
| 2026-04-23 14:09 | 12.66038 | 80.36372 | 11636 ft | 395 kts | 179° |
| 2026-04-23 14:09 | 12.63098 | 80.36290 | 12139 ft | 400 kts | 179° |
| 2026-04-23 14:10 | 12.60306 | 80.36192 | 12694 ft | 401 kts | 180° |
| 2026-04-23 14:10 | 12.57512 | 80.36078 | 13193 ft | 403 kts | 180° |
| 2026-04-23 14:10 | 12.54678 | 80.35962 | 13692 ft | 406 kts | 180° |
| 2026-04-23 14:10 | 12.51827 | 80.35847 | 14180 ft | 408 kts | 180° |
| 2026-04-23 14:11 | 12.48992 | 80.35734 | 14632 ft | 410 kts | 181° |
| 2026-04-23 14:11 | 12.46250 | 80.35625 | 15055 ft | 412 kts | 181° |
| 2026-04-23 14:11 | 12.43782 | 80.35527 | 15423 ft | 414 kts | 181° |
| 2026-04-23 14:11 | 12.40600 | 80.35403 | 15864 ft | 417 kts | 181° |
| 2026-04-23 14:12 | 12.37646 | 80.35287 | 16277 ft | 419 kts | 181° |
| 2026-04-23 14:12 | 12.34727 | 80.35173 | 16674 ft | 421 kts | 182° |
| 2026-04-23 14:12 | 12.31812 | 80.35060 | 17030 ft | 423 kts | 182° |
| 2026-04-23 14:12 | 12.28807 | 80.34943 | 17386 ft | 426 kts | 182° |
| 2026-04-23 14:13 | 12.25829 | 80.34826 | 17773 ft | 428 kts | 182° |
| 2026-04-23 14:13 | 12.22849 | 80.34708 | 18190 ft | 429 kts | 182° |
| 2026-04-23 14:13 | 12.19876 | 80.34593 | 18576 ft | 430 kts | 182° |
| 2026-04-23 14:13 | 12.16884 | 80.34476 | 18955 ft | 431 kts | 182° |
| 2026-04-23 14:14 | 12.13866 | 80.34358 | 19350 ft | 432 kts | 182° |
| 2026-04-23 14:14 | 12.10841 | 80.34240 | 19730 ft | 433 kts | 182° |
| 2026-04-23 14:14 | 12.07840 | 80.34123 | 20102 ft | 434 kts | 182° |
| 2026-04-23 14:14 | 12.04772 | 80.34003 | 20474 ft | 435 kts | 182° |
| 2026-04-23 14:15 | 12.01731 | 80.33885 | 20833 ft | 436 kts | 182° |
| 2026-04-23 14:15 | 11.98692 | 80.33768 | 21176 ft | 438 kts | 182° |
| 2026-04-23 14:15 | 11.95669 | 80.33651 | 21505 ft | 439 kts | 182° |
| 2026-04-23 14:15 | 11.92586 | 80.33531 | 21832 ft | 441 kts | 182° |
| 2026-04-23 14:16 | 11.89494 | 80.33412 | 22175 ft | 442 kts | 182° |
| 2026-04-23 14:16 | 11.86441 | 80.33295 | 22497 ft | 443 kts | 182° |
| 2026-04-23 14:16 | 11.83309 | 80.33173 | 22814 ft | 444 kts | 182° |
| 2026-04-23 14:16 | 11.80205 | 80.33054 | 23122 ft | 446 kts | 182° |
| 2026-04-23 14:17 | 11.77101 | 80.32934 | 23427 ft | 447 kts | 183° |
| 2026-04-23 14:17 | 11.73973 | 80.32813 | 23743 ft | 448 kts | 183° |
| 2026-04-23 14:17 | 11.70864 | 80.32692 | 24037 ft | 449 kts | 183° |
| 2026-04-23 14:17 | 11.67723 | 80.32571 | 24329 ft | 450 kts | 183° |
| 2026-04-23 14:18 | 11.64588 | 80.32249 | 24559 ft | 451 kts | 195° |
| 2026-04-23 14:18 | 11.61713 | 80.30940 | 24784 ft | 451 kts | 215° |
| 2026-04-23 14:18 | 11.59260 | 80.28942 | 25156 ft | 450 kts | 219° |
| 2026-04-23 14:18 | 11.56857 | 80.26930 | 25387 ft | 452 kts | 219° |
| 2026-04-23 14:19 | 11.54435 | 80.24940 | 25613 ft | 453 kts | 218° |
| 2026-04-23 14:19 | 11.51940 | 80.22920 | 25855 ft | 454 kts | 218° |
| 2026-04-23 14:19 | 11.49441 | 80.20918 | 26102 ft | 455 kts | 218° |
| 2026-04-23 14:19 | 11.46955 | 80.18939 | 26326 ft | 455 kts | 218° |
| 2026-04-23 14:20 | 11.44452 | 80.16954 | 26553 ft | 456 kts | 218° |
| 2026-04-23 14:20 | 11.41956 | 80.14981 | 26750 ft | 457 kts | 217° |
| 2026-04-23 14:20 | 11.39432 | 80.12988 | 27015 ft | 455 kts | 217° |
| 2026-04-23 14:20 | 11.36917 | 80.11005 | 27338 ft | 453 kts | 217° |
| 2026-04-23 14:21 | 11.34435 | 80.09048 | 27655 ft | 451 kts | 217° |
| 2026-04-23 14:21 | 11.31954 | 80.07094 | 27942 ft | 449 kts | 217° |
| 2026-04-23 14:21 | 11.29529 | 80.05183 | 28233 ft | 448 kts | 217° |
| 2026-04-23 14:21 | 11.27562 | 80.03635 | 28473 ft | 446 kts | 217° |
| 2026-04-23 14:22 | 11.24734 | 80.01410 | 28789 ft | 444 kts | 217° |
| 2026-04-23 14:22 | 11.22263 | 79.99464 | 29074 ft | 443 kts | 217° |
| 2026-04-23 14:22 | 11.19824 | 79.97546 | 29349 ft | 441 kts | 217° |
| 2026-04-23 14:22 | 11.17419 | 79.95653 | 29636 ft | 439 kts | 217° |
| 2026-04-23 14:23 | 11.15003 | 79.93752 | 29908 ft | 437 kts | 217° |
| 2026-04-23 14:23 | 11.12638 | 79.91892 | 30140 ft | 437 kts | 217° |
| 2026-04-23 14:23 | 11.10272 | 79.90032 | 30367 ft | 436 kts | 217° |
| 2026-04-23 14:23 | 11.07870 | 79.88145 | 30612 ft | 435 kts | 217° |
| 2026-04-23 14:24 | 11.05488 | 79.86275 | 30853 ft | 434 kts | 217° |
| 2026-04-23 14:24 | 11.03107 | 79.84405 | 31078 ft | 433 kts | 216° |
| 2026-04-23 14:24 | 11.00821 | 79.82609 | 31296 ft | 431 kts | 216° |
| 2026-04-23 14:24 | 10.98414 | 79.80720 | 31495 ft | 431 kts | 216° |
| 2026-04-23 14:25 | 10.96034 | 79.78852 | 31695 ft | 431 kts | 216° |
| 2026-04-23 14:25 | 10.93676 | 79.77002 | 31899 ft | 430 kts | 216° |
| 2026-04-23 14:25 | 10.91402 | 79.74987 | 32061 ft | 432 kts | 224° |
| 2026-04-23 14:25 | 10.89395 | 79.72706 | 32225 ft | 433 kts | 226° |
| 2026-04-23 14:26 | 10.87449 | 79.70417 | 32388 ft | 433 kts | 226° |
| 2026-04-23 14:26 | 10.85477 | 79.68089 | 32541 ft | 433 kts | 226° |
| 2026-04-23 14:26 | 10.83499 | 79.65762 | 32697 ft | 434 kts | 226° |
| 2026-04-23 14:26 | 10.81523 | 79.63442 | 32861 ft | 434 kts | 226° |
| 2026-04-23 14:27 | 10.79539 | 79.61111 | 33008 ft | 434 kts | 226° |
| 2026-04-23 14:27 | 10.77554 | 79.58785 | 33152 ft | 435 kts | 226° |
| 2026-04-23 14:27 | 10.75572 | 79.56461 | 33269 ft | 436 kts | 226° |
| 2026-04-23 14:27 | 10.73596 | 79.54148 | 33372 ft | 437 kts | 226° |
| 2026-04-23 14:28 | 10.71602 | 79.51813 | 33490 ft | 437 kts | 226° |
| 2026-04-23 14:28 | 10.69610 | 79.49482 | 33634 ft | 437 kts | 226° |
| 2026-04-23 14:28 | 10.67623 | 79.47156 | 33753 ft | 437 kts | 226° |
| 2026-04-23 14:28 | 10.65622 | 79.44817 | 33750 ft | 437 kts | 226° |
| 2026-04-23 14:29 | 10.61623 | 79.40142 | 33756 ft | 437 kts | 226° |
| 2026-04-23 14:29 | 10.57621 | 79.35466 | 33757 ft | 438 kts | 226° |
| 2026-04-23 14:30 | 10.53653 | 79.30810 | 33754 ft | 437 kts | 226° |
| 2026-04-23 14:30 | 10.49648 | 79.26109 | 33754 ft | 437 kts | 226° |
| 2026-04-23 14:31 | 10.45654 | 79.21437 | 33753 ft | 438 kts | 226° |
| 2026-04-23 14:31 | 10.41667 | 79.16782 | 33752 ft | 438 kts | 226° |
| 2026-04-23 14:32 | 10.37653 | 79.12098 | 33759 ft | 439 kts | 226° |
| 2026-04-23 14:32 | 10.33641 | 79.07423 | 33763 ft | 439 kts | 226° |
| 2026-04-23 14:33 | 10.29637 | 79.02760 | 33766 ft | 439 kts | 226° |
| 2026-04-23 14:33 | 10.25608 | 78.98066 | 33776 ft | 439 kts | 226° |
| 2026-04-23 14:34 | 10.21600 | 78.93401 | 33783 ft | 439 kts | 226° |
| 2026-04-23 14:34 | 10.17579 | 78.88722 | 33777 ft | 438 kts | 226° |
| 2026-04-23 14:35 | 10.13578 | 78.84070 | 33780 ft | 438 kts | 226° |
| 2026-04-23 14:35 | 10.09563 | 78.79401 | 33776 ft | 438 kts | 226° |
| 2026-04-23 14:36 | 10.05555 | 78.74744 | 33776 ft | 438 kts | 226° |
| 2026-04-23 14:36 | 10.01562 | 78.70106 | 33778 ft | 438 kts | 226° |
| 2026-04-23 14:37 | 9.97535 | 78.65430 | 33777 ft | 438 kts | 226° |
| 2026-04-23 14:37 | 9.93535 | 78.60789 | 33773 ft | 437 kts | 226° |
| 2026-04-23 14:38 | 9.89523 | 78.56134 | 33771 ft | 438 kts | 226° |
| 2026-04-23 14:38 | 9.85499 | 78.51498 | 33769 ft | 439 kts | 225° |
| 2026-04-23 14:39 | 9.81454 | 78.46834 | 33767 ft | 439 kts | 226° |
| 2026-04-23 14:39 | 9.77449 | 78.42203 | 33771 ft | 440 kts | 226° |
| 2026-04-23 14:40 | 9.73400 | 78.37514 | 33769 ft | 439 kts | 226° |
| 2026-04-23 14:40 | 9.69389 | 78.32861 | 33770 ft | 440 kts | 226° |
| 2026-04-23 14:41 | 9.65449 | 78.28268 | 33771 ft | 440 kts | 225° |
| 2026-04-23 14:41 | 9.61425 | 78.23599 | 33771 ft | 440 kts | 225° |
| 2026-04-23 14:42 | 9.57390 | 78.18926 | 33772 ft | 440 kts | 225° |
| 2026-04-23 14:42 | 9.53361 | 78.14267 | 33773 ft | 440 kts | 225° |
| 2026-04-23 14:43 | 9.49328 | 78.09606 | 33771 ft | 439 kts | 225° |
| 2026-04-23 14:43 | 9.45285 | 78.04936 | 33774 ft | 439 kts | 225° |
| 2026-04-23 14:44 | 9.41255 | 78.00284 | 33776 ft | 439 kts | 225° |
| 2026-04-23 14:44 | 9.37233 | 77.95641 | 33782 ft | 439 kts | 225° |
| 2026-04-23 14:45 | 9.33207 | 77.90994 | 33781 ft | 439 kts | 225° |
| 2026-04-23 14:45 | 9.29171 | 77.86341 | 33787 ft | 441 kts | 225° |
| 2026-04-23 14:46 | 9.25131 | 77.81683 | 33785 ft | 441 kts | 225° |
| 2026-04-23 14:46 | 9.21096 | 77.77033 | 33784 ft | 441 kts | 226° |
| 2026-04-23 14:47 | 9.17034 | 77.72353 | 33789 ft | 441 kts | 226° |
| 2026-04-23 14:47 | 9.12981 | 77.67685 | 33786 ft | 440 kts | 226° |
| 2026-04-23 14:48 | 9.08944 | 77.63038 | 33795 ft | 440 kts | 225° |
| 2026-04-23 14:48 | 9.04934 | 77.58424 | 33795 ft | 439 kts | 226° |
| 2026-04-23 14:49 | 9.00898 | 77.53781 | 33799 ft | 440 kts | 226° |
| 2026-04-23 14:49 | 8.96822 | 77.49093 | 33802 ft | 441 kts | 226° |
| 2026-04-23 14:50 | 8.92786 | 77.44455 | 33808 ft | 441 kts | 226° |
| 2026-04-23 14:50 | 8.88715 | 77.39782 | 33829 ft | 442 kts | 226° |
| 2026-04-23 14:51 | 8.84642 | 77.35136 | 33862 ft | 441 kts | 226° |
| 2026-04-23 14:51 | 8.80608 | 77.30494 | 33904 ft | 441 kts | 226° |
| 2026-04-23 14:52 | 8.76566 | 77.25835 | 33962 ft | 441 kts | 226° |
| 2026-04-23 14:52 | 8.72502 | 77.21166 | 33992 ft | 441 kts | 225° |
| 2026-04-23 14:53 | 8.68463 | 77.16531 | 33944 ft | 441 kts | 225° |
| 2026-04-23 14:53 | 8.64408 | 77.11884 | 33895 ft | 442 kts | 225° |
| 2026-04-23 14:54 | 8.60353 | 77.07235 | 33856 ft | 442 kts | 225° |
| 2026-04-23 14:54 | 8.56277 | 77.02566 | 33826 ft | 441 kts | 225° |
| 2026-04-23 14:55 | 8.52241 | 76.97942 | 33804 ft | 442 kts | 225° |
| 2026-04-23 14:55 | 8.48048 | 76.93377 | 33796 ft | 440 kts | 221° |
| 2026-04-23 14:56 | 8.43543 | 76.89323 | 33794 ft | 439 kts | 216° |
| 2026-04-23 14:56 | 8.38755 | 76.85482 | 33794 ft | 440 kts | 216° |
| 2026-04-23 14:57 | 8.34025 | 76.81699 | 33794 ft | 439 kts | 216° |
| 2026-04-23 14:57 | 8.29199 | 76.77840 | 33794 ft | 440 kts | 216° |
| 2026-04-23 14:58 | 8.24416 | 76.74017 | 33795 ft | 440 kts | 216° |
| 2026-04-23 14:58 | 8.19600 | 76.70167 | 33795 ft | 439 kts | 216° |
| 2026-04-23 14:59 | 8.14826 | 76.66353 | 33796 ft | 440 kts | 216° |
| 2026-04-23 14:59 | 8.10012 | 76.62508 | 33796 ft | 440 kts | 216° |
| 2026-04-23 15:00 | 8.05209 | 76.58672 | 33800 ft | 440 kts | 216° |
| 2026-04-23 15:00 | 8.00415 | 76.54845 | 33806 ft | 441 kts | 216° |
| 2026-04-23 15:01 | 7.95604 | 76.51004 | 33808 ft | 441 kts | 216° |
| 2026-04-23 15:01 | 7.90786 | 76.47160 | 33808 ft | 441 kts | 216° |
| 2026-04-23 15:02 | 7.85938 | 76.43310 | 33804 ft | 441 kts | 216° |
| 2026-04-23 15:02 | 7.81090 | 76.39464 | 33798 ft | 442 kts | 216° |
| 2026-04-23 15:03 | 7.76243 | 76.35608 | 33797 ft | 441 kts | 216° |
| 2026-04-23 15:03 | 7.71490 | 76.31802 | 33795 ft | 442 kts | 216° |
| 2026-04-23 15:04 | 7.66663 | 76.27932 | 33796 ft | 442 kts | 216° |
| 2026-04-23 15:04 | 7.61880 | 76.24114 | 33795 ft | 443 kts | 216° |
| 2026-04-23 15:05 | 7.57026 | 76.20245 | 33795 ft | 443 kts | 216° |
| 2026-04-23 15:05 | 7.52166 | 76.16376 | 33796 ft | 443 kts | 216° |
| 2026-04-23 15:06 | 7.47311 | 76.12512 | 33798 ft | 442 kts | 216° |
| 2026-04-23 15:06 | 7.42494 | 76.08680 | 33802 ft | 441 kts | 216° |
| 2026-04-23 15:07 | 7.37650 | 76.04826 | 33807 ft | 442 kts | 216° |
| 2026-04-23 15:07 | 7.32789 | 76.00961 | 33806 ft | 442 kts | 216° |
| 2026-04-23 15:08 | 7.27950 | 75.97115 | 33812 ft | 442 kts | 216° |
| 2026-04-23 15:09 | 7.20733 | 75.91383 | 33815 ft | 443 kts | 216° |
| 2026-04-23 15:09 | 7.15884 | 75.87533 | 33811 ft | 443 kts | 216° |
| 2026-04-23 15:10 | 7.11849 | 75.84328 | 33812 ft | 442 kts | 216° |
| 2026-04-23 15:10 | 7.06211 | 75.79853 | 33814 ft | 442 kts | 216° |
| 2026-04-23 15:11 | 7.01369 | 75.76010 | 33816 ft | 442 kts | 216° |
| 2026-04-23 15:11 | 6.96502 | 75.72148 | 33817 ft | 442 kts | 216° |
| 2026-04-23 15:12 | 6.91679 | 75.68323 | 33817 ft | 443 kts | 216° |
| 2026-04-23 15:12 | 6.86828 | 75.64487 | 33816 ft | 443 kts | 216° |
| 2026-04-23 15:13 | 6.81962 | 75.60651 | 33817 ft | 442 kts | 216° |
| 2026-04-23 15:13 | 6.77106 | 75.56812 | 33815 ft | 442 kts | 216° |
| 2026-04-23 15:14 | 6.72329 | 75.53029 | 33818 ft | 442 kts | 216° |
| 2026-04-23 15:14 | 6.67483 | 75.49191 | 33820 ft | 442 kts | 216° |
| 2026-04-23 15:15 | 6.62648 | 75.45362 | 33826 ft | 442 kts | 216° |
| 2026-04-23 15:15 | 6.57780 | 75.41509 | 33822 ft | 443 kts | 216° |
| 2026-04-23 15:16 | 6.52959 | 75.37693 | 33828 ft | 443 kts | 216° |
| 2026-04-23 15:16 | 6.48094 | 75.33840 | 33832 ft | 443 kts | 216° |
| 2026-04-23 15:17 | 6.43254 | 75.29980 | 33832 ft | 442 kts | 216° |
| 2026-04-23 15:17 | 6.38497 | 75.26201 | 33832 ft | 442 kts | 216° |
| 2026-04-23 15:18 | 6.33652 | 75.22366 | 33833 ft | 441 kts | 216° |
| 2026-04-23 15:18 | 6.28791 | 75.18522 | 33827 ft | 442 kts | 216° |
| 2026-04-23 15:19 | 6.23959 | 75.14704 | 33831 ft | 443 kts | 216° |
| 2026-04-23 15:19 | 6.19114 | 75.10876 | 33823 ft | 443 kts | 216° |
| 2026-04-23 15:20 | 6.15071 | 75.07683 | 33823 ft | 443 kts | 216° |
| 2026-04-23 15:20 | 6.09412 | 75.03217 | 33819 ft | 443 kts | 216° |
| 2026-04-23 15:21 | 6.04525 | 74.99359 | 33816 ft | 444 kts | 216° |
| 2026-04-23 15:21 | 5.99677 | 74.95533 | 33813 ft | 443 kts | 216° |
| 2026-04-23 15:22 | 5.94841 | 74.91685 | 33813 ft | 443 kts | 216° |
| 2026-04-23 15:22 | 5.90012 | 74.87839 | 33813 ft | 443 kts | 216° |
| 2026-04-23 15:23 | 5.85166 | 74.84002 | 33812 ft | 443 kts | 216° |
| 2026-04-23 15:23 | 5.80303 | 74.80150 | 33815 ft | 443 kts | 216° |
| 2026-04-23 15:24 | 5.75447 | 74.76294 | 33812 ft | 444 kts | 216° |
| 2026-04-23 15:24 | 5.70614 | 74.72456 | 33814 ft | 445 kts | 216° |
| 2026-04-23 15:25 | 5.65712 | 74.68559 | 33813 ft | 449 kts | 216° |
| 2026-04-23 15:25 | 5.60834 | 74.64685 | 33814 ft | 450 kts | 216° |
| 2026-04-23 15:26 | 5.55903 | 74.60767 | 33815 ft | 449 kts | 216° |
| 2026-04-23 15:26 | 5.50990 | 74.56863 | 33818 ft | 449 kts | 216° |
| 2026-04-23 15:27 | 5.46093 | 74.52973 | 33817 ft | 449 kts | 216° |
| 2026-04-23 15:27 | 5.41122 | 74.49213 | 33826 ft | 448 kts | 214° |
| 2026-04-23 15:28 | 5.36090 | 74.45512 | 33834 ft | 449 kts | 214° |
| 2026-04-23 15:28 | 5.31026 | 74.41788 | 33832 ft | 449 kts | 214° |
| 2026-04-23 15:29 | 5.26007 | 74.38096 | 33836 ft | 450 kts | 214° |
| 2026-04-23 15:29 | 5.20985 | 74.34396 | 33486 ft | 444 kts | 214° |
| 2026-04-23 15:29 | 5.18487 | 74.32542 | 32659 ft | 445 kts | 214° |
| 2026-04-23 15:30 | 5.15987 | 74.30687 | 31622 ft | 451 kts | 214° |
| 2026-04-23 15:30 | 5.13461 | 74.28817 | 30903 ft | 448 kts | 214° |
| 2026-04-23 15:30 | 5.10972 | 74.26977 | 30374 ft | 442 kts | 214° |
| 2026-04-23 15:30 | 5.08524 | 74.25172 | 29802 ft | 438 kts | 214° |
| 2026-04-23 15:31 | 5.06073 | 74.23367 | 29398 ft | 429 kts | 214° |
| 2026-04-23 15:31 | 5.03686 | 74.21608 | 29154 ft | 419 kts | 214° |
| 2026-04-23 15:31 | 5.01370 | 74.19905 | 28583 ft | 417 kts | 214° |
| 2026-04-23 15:31 | 4.99010 | 74.18172 | 27961 ft | 416 kts | 214° |
| 2026-04-23 15:32 | 4.96684 | 74.16465 | 27401 ft | 414 kts | 214° |
| 2026-04-23 15:32 | 4.94362 | 74.14760 | 26861 ft | 411 kts | 214° |
| 2026-04-23 15:32 | 4.92083 | 74.13084 | 26424 ft | 406 kts | 214° |
| 2026-04-23 15:32 | 4.89840 | 74.11434 | 26228 ft | 394 kts | 214° |
| 2026-04-23 15:33 | 4.87634 | 74.09820 | 26025 ft | 384 kts | 214° |
| 2026-04-23 15:33 | 4.85496 | 74.08258 | 25828 ft | 374 kts | 214° |
| 2026-04-23 15:33 | 4.83416 | 74.06735 | 25635 ft | 364 kts | 214° |
| 2026-04-23 15:33 | 4.81392 | 74.05253 | 25447 ft | 355 kts | 214° |
| 2026-04-23 15:34 | 4.79419 | 74.03805 | 25261 ft | 346 kts | 214° |
| 2026-04-23 15:34 | 4.77458 | 74.02471 | 25066 ft | 335 kts | 206° |
| 2026-04-23 15:34 | 4.75402 | 74.01489 | 24906 ft | 325 kts | 202° |
| 2026-04-23 15:34 | 4.73323 | 74.00597 | 24650 ft | 319 kts | 202° |
| 2026-04-23 15:35 | 4.71290 | 73.99721 | 24164 ft | 321 kts | 202° |
| 2026-04-23 15:35 | 4.69226 | 73.98815 | 23634 ft | 324 kts | 203° |
| 2026-04-23 15:35 | 4.67164 | 73.97894 | 23113 ft | 320 kts | 204° |
| 2026-04-23 15:35 | 4.65163 | 73.96992 | 22603 ft | 315 kts | 204° |
| 2026-04-23 15:36 | 4.63191 | 73.96096 | 22097 ft | 309 kts | 204° |
| 2026-04-23 15:36 | 4.61267 | 73.95219 | 21603 ft | 304 kts | 204° |
| 2026-04-23 15:36 | 4.59356 | 73.94344 | 21103 ft | 299 kts | 205° |
| 2026-04-23 15:36 | 4.57460 | 73.93475 | 20599 ft | 295 kts | 204° |
| 2026-04-23 15:37 | 4.55598 | 73.92622 | 20100 ft | 292 kts | 205° |
| 2026-04-23 15:37 | 4.53766 | 73.91783 | 19603 ft | 288 kts | 205° |
| 2026-04-23 15:37 | 4.52548 | 73.91225 | 19272 ft | 286 kts | 205° |
| 2026-04-23 15:37 | 4.50148 | 73.90124 | 18611 ft | 283 kts | 205° |
| 2026-04-23 15:38 | 4.48366 | 73.89307 | 18116 ft | 281 kts | 204° |
| 2026-04-23 15:38 | 4.46583 | 73.88489 | 17628 ft | 279 kts | 204° |
| 2026-04-23 15:38 | 4.44846 | 73.87693 | 17164 ft | 276 kts | 204° |
| 2026-04-23 15:38 | 4.43102 | 73.86894 | 16699 ft | 274 kts | 204° |
| 2026-04-23 15:39 | 4.41354 | 73.86093 | 16229 ft | 272 kts | 205° |
| 2026-04-23 15:39 | 4.39643 | 73.85309 | 15765 ft | 269 kts | 204° |
| 2026-04-23 15:39 | 4.37941 | 73.84529 | 15309 ft | 269 kts | 205° |
| 2026-04-23 15:39 | 4.36219 | 73.83740 | 14875 ft | 275 kts | 205° |
| 2026-04-23 15:40 | 4.34441 | 73.82925 | 14435 ft | 284 kts | 204° |
| 2026-04-23 15:40 | 4.32643 | 73.82100 | 13996 ft | 287 kts | 204° |
| 2026-04-23 15:40 | 4.30806 | 73.81258 | 13554 ft | 291 kts | 204° |
| 2026-04-23 15:40 | 4.28942 | 73.80404 | 13114 ft | 294 kts | 204° |
| 2026-04-23 15:41 | 4.27060 | 73.79541 | 12687 ft | 296 kts | 204° |
| 2026-04-23 15:41 | 4.25174 | 73.78677 | 12262 ft | 298 kts | 204° |
| 2026-04-23 15:41 | 4.23288 | 73.77812 | 11838 ft | 300 kts | 204° |
| 2026-04-23 15:41 | 4.21371 | 73.76934 | 11414 ft | 302 kts | 204° |
| 2026-04-23 15:42 | 4.19448 | 73.76053 | 10988 ft | 303 kts | 204° |
| 2026-04-23 15:42 | 4.17527 | 73.75173 | 10569 ft | 305 kts | 204° |
| 2026-04-23 15:42 | 4.15601 | 73.74290 | 10138 ft | 306 kts | 204° |
| 2026-04-23 15:42 | 4.13647 | 73.73395 | 9706 ft | 307 kts | 204° |
| 2026-04-23 15:43 | 4.11726 | 73.72515 | 9277 ft | 300 kts | 204° |
| 2026-04-23 15:43 | 4.09819 | 73.71641 | 8843 ft | 296 kts | 204° |
| 2026-04-23 15:43 | 4.07978 | 73.70798 | 8411 ft | 287 kts | 204° |
| 2026-04-23 15:43 | 4.06176 | 73.69973 | 7983 ft | 279 kts | 204° |
| 2026-04-23 15:44 | 4.04417 | 73.69169 | 7556 ft | 271 kts | 204° |
| 2026-04-23 15:44 | 4.02726 | 73.68394 | 7129 ft | 265 kts | 204° |
| 2026-04-23 15:44 | 4.01065 | 73.67634 | 6698 ft | 259 kts | 204° |
| 2026-04-23 15:44 | 3.99421 | 73.66882 | 6262 ft | 254 kts | 204° |
| 2026-04-23 15:45 | 3.97820 | 73.66148 | 5833 ft | 250 kts | 204° |
| 2026-04-23 15:45 | 3.96265 | 73.65397 | 5482 ft | 242 kts | 213° |
| 2026-04-23 15:45 | 3.95150 | 73.64198 | 5188 ft | 235 kts | 246° |
| 2026-04-23 15:45 | 3.94800 | 73.62628 | 4903 ft | 230 kts | 271° |
| 2026-04-23 15:46 | 3.94832 | 73.61054 | 4623 ft | 229 kts | 273° |
| 2026-04-23 15:46 | 3.94880 | 73.59447 | 4332 ft | 228 kts | 272° |
| 2026-04-23 15:46 | 3.94908 | 73.57873 | 4070 ft | 226 kts | 272° |
| 2026-04-23 15:46 | 3.94920 | 73.56318 | 4001 ft | 214 kts | 271° |
| 2026-04-23 15:47 | 3.95007 | 73.54813 | 3984 ft | 220 kts | 288° |
| 2026-04-23 15:47 | 3.95805 | 73.53602 | 3944 ft | 203 kts | 329° |
| 2026-04-23 15:47 | 3.97075 | 73.53145 | 3898 ft | 190 kts | 354° |
| 2026-04-23 15:47 | 3.98392 | 73.53074 | 3695 ft | 189 kts | 1° |
| 2026-04-23 15:48 | 3.99708 | 73.53097 | 3449 ft | 187 kts | 2° |
| 2026-04-23 15:48 | 4.01024 | 73.53118 | 3211 ft | 186 kts | 1° |
| 2026-04-23 15:48 | 4.02315 | 73.53125 | 3010 ft | 182 kts | 1° |
| 2026-04-23 15:48 | 4.03576 | 73.53127 | 2815 ft | 180 kts | 0° |
| 2026-04-23 15:49 | 4.04830 | 73.53126 | 2556 ft | 176 kts | 0° |
| 2026-04-23 15:49 | 4.06050 | 73.53124 | 2313 ft | 173 kts | 0° |
| 2026-04-23 15:49 | 4.07248 | 73.53123 | 2077 ft | 168 kts | 0° |
| 2026-04-23 15:49 | 4.08402 | 73.53121 | 1855 ft | 163 kts | 360° |
| 2026-04-23 15:50 | 4.09509 | 73.53120 | 1668 ft | 153 kts | 360° |
| 2026-04-23 15:50 | 4.10560 | 73.53119 | 1476 ft | 148 kts | 359° |
| 2026-04-23 15:50 | 4.11575 | 73.53117 | 1301 ft | 149 kts | 359° |
| 2026-04-23 15:50 | 4.12619 | 73.53116 | 1118 ft | 150 kts | 359° |
| 2026-04-23 15:51 | 4.13680 | 73.53115 | 926 ft | 150 kts | 358° |
| 2026-04-23 15:51 | 4.14722 | 73.53113 | 737 ft | 150 kts | 358° |
| 2026-04-23 15:51 | 4.15778 | 73.53112 | 542 ft | 150 kts | 358° |
| 2026-04-23 15:51 | 4.16822 | 73.53109 | 335 ft | 151 kts | 357° |
| 2026-04-23 15:52 | 4.17877 | 73.53104 | 147 ft | 150 kts | 358° |
| 2026-04-23 15:52 | 4.18912 | 73.53104 | 18 ft | 141 kts | 357° |
| 2026-04-23 15:52 | 4.19751 | 73.53101 | 12 ft | 94 kts | 0° |
| 2026-04-23 15:52 | 4.20240 | 73.53101 | 10 ft | 46 kts | 1° |
| 2026-04-23 15:53 | 4.20533 | 73.53095 | 11 ft | 39 kts | 2° |
| 2026-04-23 15:53 | 4.20796 | 73.53101 | 9 ft | 29 kts | 1° |
| 2026-04-23 15:53 | 4.20924 | 73.53077 | 8 ft | 14 kts | 303° |
| 2026-04-23 15:53 | 4.20929 | 73.53028 | 8 ft | 2 kts | 269° |
| 2026-04-23 15:54 | 4.20934 | 73.53017 | 8 ft | 1 kts | 0° |
| 2026-04-23 15:54 | 4.20918 | 73.53082 | 8 ft | 22 kts | 132° |
| 2026-04-23 15:54 | 4.20754 | 73.53101 | 10 ft | 23 kts | 179° |
| 2026-04-23 15:54 | 4.20592 | 73.53100 | 10 ft | 22 kts | 178° |
| 2026-04-23 15:55 | 4.20419 | 73.53101 | 11 ft | 27 kts | 180° |
| 2026-04-23 15:55 | 4.20212 | 73.53101 | 10 ft | 32 kts | 180° |
| 2026-04-23 15:55 | 4.19972 | 73.53101 | 10 ft | 36 kts | 179° |
| 2026-04-23 15:55 | 4.19711 | 73.53101 | 12 ft | 37 kts | 181° |
| 2026-04-23 15:56 | 4.19462 | 73.53101 | 15 ft | 33 kts | 179° |
| 2026-04-23 15:56 | 4.19240 | 73.53101 | 17 ft | 30 kts | 181° |
| 2026-04-23 15:56 | 4.19062 | 73.53101 | 18 ft | 16 kts | 181° |
| 2026-04-23 15:56 | 4.19007 | 73.53036 | 18 ft | 6 kts | 269° |
| 2026-04-23 15:57 | 4.19007 | 73.52991 | 19 ft | 6 kts | 270° |
| 2026-04-23 15:57 | 4.19007 | 73.52945 | 19 ft | 6 kts | 267° |
| 2026-04-23 15:57 | 4.18975 | 73.52918 | 19 ft | 7 kts | 183° |
| 2026-04-23 15:57 | 4.18905 | 73.52919 | 19 ft | 12 kts | 180° |
| 2026-04-23 15:58 | 4.18803 | 73.52921 | 19 ft | 16 kts | 180° |
| 2026-04-23 15:58 | 4.18694 | 73.52908 | 17 ft | 12 kts | 238° |
| 2026-04-23 15:58 | 4.18675 | 73.52857 | 18 ft | 7 kts | 250° |
| 2026-04-23 15:58 | 4.18672 | 73.52808 | 19 ft | 4 kts | 269° |
| 2026-04-23 15:59 | 4.18671 | 73.52797 | 19 ft | 0 kts | 269° |
| 2026-04-23 15:59 | 4.18671 | 73.52795 | 19 ft | 0 kts | 269° |
| 2026-04-23 15:59 | 4.18671 | 73.52792 | 19 ft | 0 kts | 269° |